createdAt,value
2022-10-19T00:02:05.553Z,23.73
2022-10-19T00:05:29.382Z,28.27
2022-10-19T00:08:53.592Z,25.00
2022-10-19T00:12:09.523Z,29.40
2022-10-19T00:15:29.411Z,25.77
2022-10-19T00:18:50.427Z,25.17
2022-10-19T00:22:13.109Z,27.60
2022-10-19T00:25:39.363Z,27.20
2022-10-19T00:29:00.788Z,24.98
2022-10-19T00:32:20.400Z,24.80
2022-10-19T00:35:43.347Z,24.00
2022-10-19T00:39:01.503Z,24.13
2022-10-19T00:42:12.561Z,23.88
2022-10-19T00:45:19.571Z,29.13
2022-10-19T00:48:29.887Z,31.77
2022-10-19T00:51:58.072Z,27.07
2022-10-19T00:55:20.081Z,25.33
2022-10-19T00:58:42.123Z,26.65
2022-10-19T01:02:05.048Z,26.25
2022-10-19T01:05:21.471Z,26.08
2022-10-19T01:08:34.909Z,36.93
2022-10-19T01:12:27.181Z,26.83
2022-10-19T01:15:48.858Z,27.55
2022-10-19T01:18:59.020Z,26.63
2022-10-19T01:22:28.238Z,25.17
2022-10-19T01:26:06.375Z,25.07
2022-10-19T01:29:18.687Z,23.57
2022-10-19T01:32:33.296Z,25.33
2022-10-19T01:36:12.311Z,23.70
2022-10-19T01:39:29.366Z,25.55
2022-10-19T01:42:46.904Z,25.83
2022-10-19T01:46:03.867Z,26.57
2022-10-19T01:49:30.092Z,28.25
2022-10-19T01:52:41.284Z,27.85
2022-10-19T01:55:59.148Z,28.58
2022-10-19T01:59:20.128Z,26.07
2022-10-19T02:02:31.299Z,24.53
2022-10-19T02:05:36.636Z,27.05
2022-10-19T02:08:56.136Z,22.92
2022-10-19T02:12:34.355Z,24.50
2022-10-19T02:16:15.175Z,24.40
2022-10-19T02:19:26.171Z,28.33
2022-10-19T02:22:32.580Z,24.20
2022-10-19T02:25:40.447Z,24.48
2022-10-19T02:28:54.787Z,22.98
2022-10-19T02:32:04.622Z,23.80
2022-10-19T02:35:28.102Z,25.13
2022-10-19T02:38:55.241Z,25.45
2022-10-19T02:42:24.635Z,22.25
2022-10-19T02:45:56.289Z,20.75
2022-10-19T02:49:13.839Z,22.47
2022-10-19T02:52:30.485Z,21.67
2022-10-19T02:55:48.106Z,24.65
2022-10-19T02:59:09.168Z,21.63
2022-10-19T03:02:27.147Z,23.08
2022-10-19T03:05:50.094Z,22.63
2022-10-19T03:09:23.982Z,22.90
2022-10-19T03:12:45.739Z,23.05
2022-10-19T03:15:55.680Z,21.80
2022-10-19T03:19:18.953Z,22.52
2022-10-19T03:22:39.709Z,23.07
2022-10-19T03:26:02.964Z,23.33
2022-10-19T03:29:37.020Z,26.75
2022-10-19T03:32:44.614Z,24.02
2022-10-19T03:36:21.112Z,26.65
2022-10-19T03:39:38.128Z,24.30
2022-10-19T03:43:01.016Z,23.53
2022-10-19T03:46:24.066Z,27.85
2022-10-19T03:49:46.941Z,21.35
2022-10-19T03:53:14.134Z,23.50
2022-10-19T03:56:37.807Z,23.43
2022-10-19T04:00:00.916Z,22.00
2022-10-19T04:03:20.218Z,22.85
2022-10-19T04:06:30.136Z,21.90
2022-10-19T04:09:33.778Z,22.02
2022-10-19T04:13:40.992Z,19.70
2022-10-19T04:16:48.581Z,23.33
2022-10-19T04:20:03.079Z,21.85
2022-10-19T04:23:24.802Z,20.83
2022-10-19T04:26:45.859Z,19.60
2022-10-19T04:30:08.827Z,23.37
2022-10-19T04:33:29.774Z,25.10
2022-10-19T04:36:52.808Z,21.63
2022-10-19T04:40:15.128Z,21.95
2022-10-19T04:43:18.257Z,20.50
2022-10-19T04:46:21.921Z,24.47
2022-10-19T04:49:31.394Z,24.47
2022-10-19T04:52:46.858Z,20.83
2022-10-19T04:56:03.067Z,21.92
2022-10-19T04:59:36.729Z,20.75
2022-10-19T05:03:01.425Z,24.57
2022-10-19T05:06:11.545Z,21.33
2022-10-19T05:09:37.656Z,21.17
2022-10-19T05:13:04.736Z,20.95
2022-10-19T05:16:32.623Z,21.35
2022-10-19T05:19:54.441Z,22.70
2022-10-19T05:23:15.443Z,23.93
2022-10-19T05:26:34.385Z,23.40
2022-10-19T05:29:44.237Z,23.60
2022-10-19T05:32:47.305Z,26.00
2022-10-19T05:35:53.805Z,23.33
2022-10-19T05:39:08.893Z,23.93
2022-10-19T05:42:31.497Z,25.60
2022-10-19T05:45:41.651Z,25.58
2022-10-19T05:48:46.807Z,21.92
2022-10-19T05:56:57.583Z,26.33
2022-10-19T06:06:31.733Z,24.73
2022-10-19T06:10:32.399Z,20.35
2022-10-19T06:20:01.877Z,26.57
2022-10-19T06:24:03.298Z,23.20
2022-10-19T06:32:34.660Z,19.25
2022-10-19T06:35:44.947Z,19.13
2022-10-19T06:39:02.221Z,18.53
2022-10-19T06:48:21.917Z,19.60
2022-10-19T06:51:41.972Z,16.65
2022-10-19T06:56:05.733Z,17.37
2022-10-19T07:04:27.821Z,16.70
2022-10-19T07:07:30.903Z,15.80
2022-10-19T07:11:14.996Z,18.13
2022-10-19T07:14:43.695Z,16.43
2022-10-19T07:18:41.605Z,16.97
2022-10-19T07:26:55.979Z,18.58
2022-10-19T07:30:06.335Z,17.15
2022-10-19T07:33:58.411Z,17.07
2022-10-19T07:37:11.459Z,17.30
2022-10-19T07:40:20.673Z,21.05
2022-10-19T07:43:46.919Z,18.75
2022-10-19T07:47:15.748Z,17.50
2022-10-19T07:50:35.831Z,16.33
2022-10-19T07:53:52.669Z,16.80
2022-10-19T07:56:58.210Z,16.80
2022-10-19T08:00:30.105Z,17.65
2022-10-19T08:07:43.883Z,15.57
2022-10-19T08:11:26.286Z,16.50
2022-10-19T08:14:57.533Z,16.90
2022-10-19T08:23:10.600Z,15.55
2022-10-19T08:27:03.129Z,13.97
2022-10-19T08:30:18.509Z,15.47
2022-10-19T08:33:29.804Z,15.50
2022-10-19T08:36:56.729Z,16.02
2022-10-19T08:40:47.885Z,12.70
2022-10-19T08:44:45.406Z,16.97
2022-10-19T08:48:37.144Z,14.43
2022-10-19T08:57:33.753Z,12.82
2022-10-19T09:01:42.011Z,13.18
2022-10-19T09:05:31.302Z,10.67
2022-10-19T09:08:39.127Z,7.83
2022-10-19T09:12:23.417Z,7.50
2022-10-19T09:15:44.627Z,5.40
2022-10-19T09:22:21.730Z,5.13
2022-10-19T09:25:35.270Z,4.67
2022-10-19T09:28:58.635Z,6.32
2022-10-19T09:32:40.466Z,4.13
2022-10-19T09:35:58.356Z,7.78
2022-10-19T09:39:14.484Z,6.80
2022-10-19T09:42:30.867Z,6.23
2022-10-19T09:45:57.466Z,6.82
2022-10-19T09:49:07.251Z,6.70
2022-10-19T09:52:55.189Z,8.98
2022-10-19T09:56:54.123Z,7.13
2022-10-19T10:00:47.777Z,8.63
2022-10-19T10:04:20.272Z,5.53
2022-10-19T10:08:41.105Z,8.90
2022-10-19T10:13:07.114Z,5.75
2022-10-19T10:16:43.512Z,5.83
2022-10-19T10:20:23.636Z,4.90
2022-10-19T10:24:32.323Z,5.95
2022-10-19T10:28:19.209Z,4.65
2022-10-19T10:31:44.751Z,6.72
2022-10-19T10:35:16.750Z,2.97
2022-10-19T10:38:55.480Z,2.93
2022-10-19T10:42:39.103Z,2.50
2022-10-19T10:46:47.587Z,4.53
2022-10-19T10:50:20.630Z,2.85
2022-10-19T10:53:54.900Z,1.70
2022-10-19T10:58:15.115Z,3.07
2022-10-19T11:02:09.423Z,14.32
2022-10-19T11:06:09.261Z,6.22
2022-10-19T11:10:10.232Z,4.50
2022-10-19T11:19:25.065Z,6.37
2022-10-19T11:23:11.153Z,5.22
2022-10-19T11:27:00.992Z,6.55
2022-10-19T11:30:33.356Z,18.73
2022-10-19T11:34:28.057Z,2.60
2022-10-19T11:38:18.388Z,5.90
2022-10-19T11:46:32.316Z,4.93
2022-10-19T11:50:03.160Z,2.75
2022-10-19T11:53:18.903Z,6.60
2022-10-19T11:57:03.978Z,3.57
2022-10-19T12:01:02.763Z,5.50
2022-10-19T12:04:55.416Z,4.18
2022-10-19T12:08:32.456Z,1.65
2022-10-19T12:12:31.125Z,2.53
2022-10-19T12:16:20.934Z,3.77
2022-10-19T12:19:45.147Z,3.90
2022-10-19T12:23:31.509Z,2.58
2022-10-19T12:26:38.171Z,7.15
2022-10-19T12:29:49.980Z,12.10
2022-10-19T12:33:01.997Z,4.23
2022-10-19T12:36:53.205Z,4.85
2022-10-19T12:40:09.504Z,12.18
2022-10-19T12:43:33.298Z,7.57
2022-10-19T12:46:51.767Z,4.63
2022-10-19T12:50:00.138Z,5.73
2022-10-19T12:53:07.827Z,3.97
2022-10-19T12:56:22.960Z,9.15
2022-10-19T12:59:38.730Z,3.60
2022-10-19T13:03:28.984Z,2.30
2022-10-19T13:07:01.596Z,4.90
2022-10-19T13:10:45.718Z,3.72
2022-10-19T13:14:26.670Z,3.17
2022-10-19T13:17:51.917Z,5.60
2022-10-19T13:21:09.851Z,6.03
2022-10-19T13:24:36.815Z,5.47
2022-10-19T13:28:58.686Z,5.00
2022-10-19T13:32:53.529Z,6.68
2022-10-19T13:36:19.674Z,13.35
2022-10-19T13:39:30.678Z,6.57
2022-10-19T13:42:46.671Z,8.27
2022-10-19T13:46:30.148Z,3.47
2022-10-19T13:50:11.527Z,5.20
2022-10-19T13:53:39.711Z,6.45
2022-10-19T13:57:19.210Z,7.20
2022-10-19T14:00:36.288Z,8.67
2022-10-19T14:04:10.252Z,6.20
2022-10-19T14:07:32.630Z,16.08
2022-10-19T14:11:01.612Z,7.65
2022-10-19T14:14:28.522Z,8.23
2022-10-19T14:17:42.949Z,5.50
2022-10-19T14:21:06.430Z,8.18
2022-10-19T14:24:53.799Z,5.28
2022-10-19T14:28:10.754Z,11.38
2022-10-19T14:31:22.503Z,8.80
2022-10-19T14:34:37.248Z,10.07
2022-10-19T14:37:45.230Z,6.13
2022-10-19T14:41:06.747Z,11.18
2022-10-19T14:44:58.400Z,6.25
2022-10-19T14:48:17.025Z,7.27
2022-10-19T14:51:38.982Z,5.20
2022-10-19T14:54:51.539Z,5.55
2022-10-19T14:57:54.759Z,34.90
2022-10-19T15:01:14.225Z,12.02
2022-10-19T15:04:43.264Z,8.20
2022-10-19T15:08:00.373Z,5.73
2022-10-19T15:11:33.338Z,5.13
2022-10-19T15:14:38.288Z,2.50
2022-10-19T15:18:02.818Z,6.20
2022-10-19T15:21:33.534Z,6.83
2022-10-19T15:25:11.491Z,5.97
2022-10-19T15:28:34.967Z,4.93
2022-10-19T15:31:40.719Z,4.93
2022-10-19T15:35:07.553Z,4.05
2022-10-19T15:38:28.458Z,4.27
2022-10-19T15:41:51.338Z,4.97
2022-10-19T15:45:12.174Z,9.63
2022-10-19T15:48:41.611Z,6.57
2022-10-19T15:51:54.440Z,3.85
2022-10-19T15:55:10.459Z,5.00
2022-10-19T15:58:34.197Z,4.67
2022-10-19T16:02:00.421Z,4.60
2022-10-19T16:05:24.466Z,7.22
2022-10-19T16:08:41.362Z,6.53
2022-10-19T16:12:03.311Z,5.60
2022-10-19T16:15:30.141Z,4.93
2022-10-19T16:18:50.200Z,5.95
2022-10-19T16:22:10.276Z,6.00
2022-10-19T16:25:33.426Z,4.85
2022-10-19T16:28:44.214Z,4.90
2022-10-19T16:31:47.500Z,5.10
2022-10-19T16:35:40.391Z,3.50
2022-10-19T16:38:43.539Z,3.78
2022-10-19T16:41:52.090Z,5.95
2022-10-19T16:45:03.032Z,6.13
2022-10-19T16:48:24.179Z,9.33
2022-10-19T16:51:39.210Z,5.30
2022-10-19T16:55:02.004Z,6.25
2022-10-19T16:58:10.056Z,6.80
2022-10-19T17:01:19.457Z,9.27
2022-10-19T17:04:29.642Z,4.83
2022-10-19T17:07:33.286Z,9.02
2022-10-19T17:10:42.513Z,7.57
2022-10-19T17:13:53.149Z,7.75
2022-10-19T17:16:56.418Z,10.40
2022-10-19T17:20:13.862Z,11.03
2022-10-19T17:23:41.958Z,7.13
2022-10-19T17:27:17.099Z,8.98
2022-10-19T17:30:33.110Z,5.60
2022-10-19T17:33:36.955Z,7.30
2022-10-19T17:36:46.461Z,5.73
2022-10-19T17:39:56.707Z,8.52
2022-10-19T17:43:19.935Z,7.03
2022-10-19T17:46:40.589Z,5.88
2022-10-19T17:49:51.588Z,7.20
2022-10-19T17:53:08.990Z,10.10
2022-10-19T17:56:38.964Z,7.78
2022-10-19T17:59:52.775Z,10.93
2022-10-19T18:03:19.027Z,5.40
2022-10-19T18:06:43.657Z,5.93
2022-10-19T18:10:06.839Z,7.83
2022-10-19T18:13:14.919Z,6.10
2022-10-19T18:16:40.328Z,5.85
2022-10-19T18:19:57.367Z,7.25
2022-10-19T18:23:04.039Z,8.83
2022-10-19T18:26:16.023Z,9.27
2022-10-19T18:29:32.236Z,8.20
2022-10-19T18:32:49.504Z,6.45
2022-10-19T18:36:01.454Z,7.88
2022-10-19T18:39:11.174Z,6.53
2022-10-19T18:42:16.644Z,7.17
2022-10-19T18:45:27.354Z,6.78
2022-10-19T18:48:45.777Z,5.80
2022-10-19T18:52:09.716Z,7.30
2022-10-19T18:55:38.429Z,4.93
2022-10-19T18:58:49.561Z,8.33
2022-10-19T19:01:54.943Z,7.80
2022-10-19T19:05:09.201Z,8.38
2022-10-19T19:08:16.802Z,7.53
2022-10-19T19:11:28.773Z,5.97
2022-10-19T19:14:34.416Z,13.43
2022-10-19T19:17:41.964Z,14.05
2022-10-19T19:20:48.798Z,7.28
2022-10-19T19:24:14.773Z,7.88
2022-10-19T19:27:46.432Z,8.23
2022-10-19T19:31:04.737Z,7.67
2022-10-19T19:34:21.645Z,7.97
2022-10-19T19:37:50.597Z,6.85
2022-10-19T19:40:53.736Z,7.22
2022-10-19T19:44:00.523Z,6.47
2022-10-19T19:47:11.547Z,8.03
2022-10-19T19:50:28.748Z,9.98
2022-10-19T19:53:48.029Z,7.07
2022-10-19T19:57:18.221Z,4.35
2022-10-19T20:00:36.580Z,5.33
2022-10-19T20:03:47.067Z,5.17
2022-10-19T20:06:54.685Z,7.75
2022-10-19T20:10:02.520Z,5.82
2022-10-19T20:13:19.898Z,5.65
2022-10-19T20:16:37.844Z,5.33
2022-10-19T20:19:57.717Z,6.53
2022-10-19T20:23:25.738Z,6.20
2022-10-19T20:26:29.795Z,6.30
2022-10-19T20:29:34.561Z,5.13
2022-10-19T20:32:41.606Z,6.30
2022-10-19T20:35:51.091Z,6.53
2022-10-19T20:38:59.857Z,8.57
2022-10-19T20:42:03.124Z,4.72
2022-10-19T20:45:07.403Z,8.98
2022-10-19T20:48:30.488Z,6.40
2022-10-19T20:51:59.563Z,4.80
2022-10-19T20:55:20.570Z,7.18
2022-10-19T20:58:37.497Z,5.25
2022-10-19T21:01:57.440Z,5.10
2022-10-19T21:05:17.613Z,5.60
2022-10-19T21:08:42.534Z,6.27
2022-10-19T21:12:04.556Z,5.13
2022-10-19T21:15:26.780Z,5.60
2022-10-19T21:18:29.752Z,4.97
2022-10-19T21:21:46.207Z,5.60
2022-10-19T21:24:52.676Z,6.10
2022-10-19T21:28:15.462Z,6.43
2022-10-19T21:31:45.219Z,4.97
2022-10-19T21:35:05.806Z,5.85
2022-10-19T21:38:28.326Z,5.67
2022-10-19T21:41:44.490Z,4.97
2022-10-19T21:45:28.767Z,6.38
2022-10-19T21:48:36.269Z,5.88
2022-10-19T21:51:54.070Z,4.80
2022-10-19T21:55:10.355Z,6.40
2022-10-19T21:58:35.325Z,5.67
2022-10-19T22:02:04.348Z,4.95
2022-10-19T22:05:27.265Z,4.05
2022-10-19T22:08:43.501Z,4.70
2022-10-19T22:12:04.363Z,6.73
2022-10-19T22:15:33.274Z,3.63
2022-10-19T22:18:57.352Z,5.78
2022-10-19T22:22:15.323Z,4.63
2022-10-19T22:25:38.250Z,4.53
2022-10-19T22:28:57.201Z,5.03
2022-10-19T22:32:21.368Z,5.30
2022-10-19T22:35:47.361Z,6.22
2022-10-19T22:39:10.323Z,4.68
2022-10-19T22:43:11.218Z,6.93
2022-10-19T22:46:34.174Z,6.17
2022-10-19T22:49:54.886Z,5.03
2022-10-19T22:53:18.153Z,4.63
2022-10-19T22:56:54.176Z,6.55
2022-10-19T23:00:19.856Z,6.93
2022-10-19T23:03:29.681Z,5.40
2022-10-19T23:06:45.101Z,5.40
2022-10-19T23:10:20.116Z,5.18
2022-10-19T23:13:33.843Z,3.95
2022-10-19T23:16:57.600Z,4.30
2022-10-19T23:20:26.820Z,4.37
2022-10-19T23:23:49.082Z,6.97
2022-10-19T23:27:03.771Z,6.05
2022-10-19T23:30:07.786Z,6.90
2022-10-19T23:33:11.846Z,5.22
2022-10-19T23:36:24.804Z,4.07
2022-10-19T23:39:32.538Z,4.43
2022-10-19T23:42:36.384Z,4.10
2022-10-19T23:45:46.920Z,6.05
2022-10-19T23:49:06.053Z,4.90
2022-10-19T23:52:29.716Z,6.20
2022-10-19T23:55:46.854Z,4.67
2022-10-19T23:59:00.787Z,5.13
